sensor_id;sensor_type;location;lat;lon;timestamp;temperature;humidity
29237;DHT22;16266;50.866;4.398;2023-08-12T00:00:19;21.40;99.90
29237;DHT22;16266;50.866;4.398;2023-08-12T00:02:46;21.30;99.90
29237;DHT22;16266;50.866;4.398;2023-08-12T00:05:12;21.30;99.90
29237;DHT22;16266;50.866;4.398;2023-08-12T00:07:39;21.20;99.90
29237;DHT22;16266;50.866;4.398;2023-08-12T00:10:07;21.30;99.90
29237;DHT22;16266;50.866;4.398;2023-08-12T00:12:36;21.20;99.90
29237;DHT22;16266;50.866;4.398;2023-08-12T00:15:03;21.30;99.90
29237;DHT22;16266;50.866;4.398;2023-08-12T00:17:30;21.30;99.90
29237;DHT22;16266;50.866;4.398;2023-08-12T00:19:56;21.40;99.90
29237;DHT22;16266;50.866;4.398;2023-08-12T00:22:22;21.40;99.90
29237;DHT22;16266;50.866;4.398;2023-08-12T00:24:48;21.40;99.90
29237;DHT22;16266;50.866;4.398;2023-08-12T00:27:13;21.40;99.90
29237;DHT22;16266;50.866;4.398;2023-08-12T00:29:39;21.40;99.90
29237;DHT22;16266;50.866;4.398;2023-08-12T00:32:05;21.30;99.90
29237;DHT22;16266;50.866;4.398;2023-08-12T00:34:30;21.20;99.90
29237;DHT22;16266;50.866;4.398;2023-08-12T00:36:56;21.30;99.90
29237;DHT22;16266;50.866;4.398;2023-08-12T00:39:22;21.30;99.90
29237;DHT22;16266;50.866;4.398;2023-08-12T00:41:48;21.40;99.90
29237;DHT22;16266;50.866;4.398;2023-08-12T00:44:13;21.30;99.90
29237;DHT22;16266;50.866;4.398;2023-08-12T00:46:41;21.30;99.90
29237;DHT22;16266;50.866;4.398;2023-08-12T00:49:06;21.30;99.90
29237;DHT22;16266;50.866;4.398;2023-08-12T00:51:32;21.30;99.90
29237;DHT22;16266;50.866;4.398;2023-08-12T00:53:59;21.40;99.90
29237;DHT22;16266;50.866;4.398;2023-08-12T00:56:26;21.40;99.90
29237;DHT22;16266;50.866;4.398;2023-08-12T00:58:53;21.30;99.90
29237;DHT22;16266;50.866;4.398;2023-08-12T01:01:19;21.30;99.90
29237;DHT22;16266;50.866;4.398;2023-08-12T01:03:45;21.30;99.90
29237;DHT22;16266;50.866;4.398;2023-08-12T01:06:11;21.40;99.90
29237;DHT22;16266;50.866;4.398;2023-08-12T01:08:37;21.40;99.90
29237;DHT22;16266;50.866;4.398;2023-08-12T01:11:20;21.20;99.90
29237;DHT22;16266;50.866;4.398;2023-08-12T01:14:14;21.00;99.90
29237;DHT22;16266;50.866;4.398;2023-08-12T01:16:45;21.00;99.90
29237;DHT22;16266;50.866;4.398;2023-08-12T01:19:30;21.00;99.90
29237;DHT22;16266;50.866;4.398;2023-08-12T01:22:00;20.90;99.90
29237;DHT22;16266;50.866;4.398;2023-08-12T01:24:27;21.00;99.90
29237;DHT22;16266;50.866;4.398;2023-08-12T01:26:58;21.00;99.90
29237;DHT22;16266;50.866;4.398;2023-08-12T01:29:25;20.90;99.90
29237;DHT22;16266;50.866;4.398;2023-08-12T01:32:20;21.00;99.90
29237;DHT22;16266;50.866;4.398;2023-08-12T01:35:05;20.90;99.90
29237;DHT22;16266;50.866;4.398;2023-08-12T01:37:32;20.90;99.90
29237;DHT22;16266;50.866;4.398;2023-08-12T01:40:01;20.90;99.90
29237;DHT22;16266;50.866;4.398;2023-08-12T01:42:30;20.80;99.90
29237;DHT22;16266;50.866;4.398;2023-08-12T01:44:55;20.80;99.90
29237;DHT22;16266;50.866;4.398;2023-08-12T01:47:21;20.80;99.90
29237;DHT22;16266;50.866;4.398;2023-08-12T01:49:47;20.80;99.90
29237;DHT22;16266;50.866;4.398;2023-08-12T01:52:13;20.80;99.90
29237;DHT22;16266;50.866;4.398;2023-08-12T01:54:38;20.80;99.90
29237;DHT22;16266;50.866;4.398;2023-08-12T01:57:04;20.70;99.90
29237;DHT22;16266;50.866;4.398;2023-08-12T01:59:37;20.60;99.90
29237;DHT22;16266;50.866;4.398;2023-08-12T02:02:03;20.60;99.90
29237;DHT22;16266;50.866;4.398;2023-08-12T02:04:29;20.60;99.90
29237;DHT22;16266;50.866;4.398;2023-08-12T02:06:55;20.60;99.90
29237;DHT22;16266;50.866;4.398;2023-08-12T02:09:21;20.60;99.90
29237;DHT22;16266;50.866;4.398;2023-08-12T02:11:48;20.60;99.90
29237;DHT22;16266;50.866;4.398;2023-08-12T02:14:14;20.60;99.90
29237;DHT22;16266;50.866;4.398;2023-08-12T02:16:39;20.60;99.90
29237;DHT22;16266;50.866;4.398;2023-08-12T02:19:05;20.60;99.90
29237;DHT22;16266;50.866;4.398;2023-08-12T02:21:31;20.60;99.90
29237;DHT22;16266;50.866;4.398;2023-08-12T02:23:56;20.60;99.90
29237;DHT22;16266;50.866;4.398;2023-08-12T02:26:22;20.50;99.90
29237;DHT22;16266;50.866;4.398;2023-08-12T02:28:47;20.50;99.90
29237;DHT22;16266;50.866;4.398;2023-08-12T02:31:14;20.50;99.90
29237;DHT22;16266;50.866;4.398;2023-08-12T02:33:40;20.40;99.90
29237;DHT22;16266;50.866;4.398;2023-08-12T02:36:06;20.50;99.90
29237;DHT22;16266;50.866;4.398;2023-08-12T02:38:31;20.50;99.90
29237;DHT22;16266;50.866;4.398;2023-08-12T02:40:57;20.50;99.90
29237;DHT22;16266;50.866;4.398;2023-08-12T02:43:23;20.60;99.90
29237;DHT22;16266;50.866;4.398;2023-08-12T02:45:48;20.60;99.90
29237;DHT22;16266;50.866;4.398;2023-08-12T02:48:14;20.50;99.90
29237;DHT22;16266;50.866;4.398;2023-08-12T02:50:39;20.50;99.90
29237;DHT22;16266;50.866;4.398;2023-08-12T02:53:06;20.50;99.90
29237;DHT22;16266;50.866;4.398;2023-08-12T02:55:31;20.50;99.90
29237;DHT22;16266;50.866;4.398;2023-08-12T02:57:58;20.40;99.90
29237;DHT22;16266;50.866;4.398;2023-08-12T03:00:23;20.40;99.90
29237;DHT22;16266;50.866;4.398;2023-08-12T03:02:49;20.50;99.90
29237;DHT22;16266;50.866;4.398;2023-08-12T03:05:15;20.50;99.90
29237;DHT22;16266;50.866;4.398;2023-08-12T03:07:41;20.60;99.90
29237;DHT22;16266;50.866;4.398;2023-08-12T03:10:07;20.50;99.90
29237;DHT22;16266;50.866;4.398;2023-08-12T03:12:33;20.50;99.90
29237;DHT22;16266;50.866;4.398;2023-08-12T03:14:58;20.60;99.90
29237;DHT22;16266;50.866;4.398;2023-08-12T03:17:24;20.60;99.90
29237;DHT22;16266;50.866;4.398;2023-08-12T03:19:49;20.70;99.90
29237;DHT22;16266;50.866;4.398;2023-08-12T03:22:16;20.70;99.90
29237;DHT22;16266;50.866;4.398;2023-08-12T03:24:42;20.70;99.90
29237;DHT22;16266;50.866;4.398;2023-08-12T03:27:07;20.70;99.90
29237;DHT22;16266;50.866;4.398;2023-08-12T03:29:33;20.70;99.90
29237;DHT22;16266;50.866;4.398;2023-08-12T03:31:59;20.70;99.90
29237;DHT22;16266;50.866;4.398;2023-08-12T03:34:24;20.70;99.90
29237;DHT22;16266;50.866;4.398;2023-08-12T03:36:50;20.70;99.90
29237;DHT22;16266;50.866;4.398;2023-08-12T03:39:16;20.70;99.90
29237;DHT22;16266;50.866;4.398;2023-08-12T03:41:42;20.60;99.90
29237;DHT22;16266;50.866;4.398;2023-08-12T03:44:08;20.60;99.90
29237;DHT22;16266;50.866;4.398;2023-08-12T03:46:33;20.60;99.90
29237;DHT22;16266;50.866;4.398;2023-08-12T03:48:59;20.60;99.90
29237;DHT22;16266;50.866;4.398;2023-08-12T03:51:25;20.50;99.90
29237;DHT22;16266;50.866;4.398;2023-08-12T03:53:51;20.40;99.90
29237;DHT22;16266;50.866;4.398;2023-08-12T03:56:16;20.30;99.90
29237;DHT22;16266;50.866;4.398;2023-08-12T03:58:43;20.20;99.90
29237;DHT22;16266;50.866;4.398;2023-08-12T04:01:08;20.20;99.90
29237;DHT22;16266;50.866;4.398;2023-08-12T04:03:34;20.20;99.90
29237;DHT22;16266;50.866;4.398;2023-08-12T04:05:59;20.20;99.90
29237;DHT22;16266;50.866;4.398;2023-08-12T04:08:25;20.30;99.90
29237;DHT22;16266;50.866;4.398;2023-08-12T04:10:51;20.20;99.90
29237;DHT22;16266;50.866;4.398;2023-08-12T04:13:17;20.30;99.90
29237;DHT22;16266;50.866;4.398;2023-08-12T04:15:43;20.30;99.90
29237;DHT22;16266;50.866;4.398;2023-08-12T04:18:13;20.30;99.90
29237;DHT22;16266;50.866;4.398;2023-08-12T04:20:39;20.30;99.90
29237;DHT22;16266;50.866;4.398;2023-08-12T04:23:04;20.30;99.90
29237;DHT22;16266;50.866;4.398;2023-08-12T04:25:30;20.30;99.90
29237;DHT22;16266;50.866;4.398;2023-08-12T04:27:56;20.40;99.90
29237;DHT22;16266;50.866;4.398;2023-08-12T04:30:21;20.30;99.90
29237;DHT22;16266;50.866;4.398;2023-08-12T04:32:47;20.30;99.90
29237;DHT22;16266;50.866;4.398;2023-08-12T04:35:13;20.40;99.90
29237;DHT22;16266;50.866;4.398;2023-08-12T04:37:38;20.40;99.90
29237;DHT22;16266;50.866;4.398;2023-08-12T04:40:04;20.40;99.90
29237;DHT22;16266;50.866;4.398;2023-08-12T04:42:30;20.40;99.90
29237;DHT22;16266;50.866;4.398;2023-08-12T04:44:56;20.40;99.90
29237;DHT22;16266;50.866;4.398;2023-08-12T04:47:22;20.40;99.90
29237;DHT22;16266;50.866;4.398;2023-08-12T04:49:48;20.40;99.90
29237;DHT22;16266;50.866;4.398;2023-08-12T04:52:13;20.30;99.90
29237;DHT22;16266;50.866;4.398;2023-08-12T04:54:39;20.30;99.90
29237;DHT22;16266;50.866;4.398;2023-08-12T04:57:05;20.30;99.90
29237;DHT22;16266;50.866;4.398;2023-08-12T04:59:31;20.40;99.90
29237;DHT22;16266;50.866;4.398;2023-08-12T05:01:56;20.30;99.90
29237;DHT22;16266;50.866;4.398;2023-08-12T05:04:22;20.40;99.90
29237;DHT22;16266;50.866;4.398;2023-08-12T05:06:48;20.30;99.90
29237;DHT22;16266;50.866;4.398;2023-08-12T05:09:14;20.30;99.90
29237;DHT22;16266;50.866;4.398;2023-08-12T05:11:40;20.30;99.90
29237;DHT22;16266;50.866;4.398;2023-08-12T05:14:05;20.30;99.90
29237;DHT22;16266;50.866;4.398;2023-08-12T05:16:31;20.20;99.90
29237;DHT22;16266;50.866;4.398;2023-08-12T05:18:57;20.30;99.90
29237;DHT22;16266;50.866;4.398;2023-08-12T05:21:22;20.30;99.90
29237;DHT22;16266;50.866;4.398;2023-08-12T05:23:48;20.30;99.90
29237;DHT22;16266;50.866;4.398;2023-08-12T05:26:14;20.30;99.90
29237;DHT22;16266;50.866;4.398;2023-08-12T05:28:40;20.40;99.90
29237;DHT22;16266;50.866;4.398;2023-08-12T05:31:05;20.40;99.90
29237;DHT22;16266;50.866;4.398;2023-08-12T05:33:31;20.40;99.90
29237;DHT22;16266;50.866;4.398;2023-08-12T05:35:57;20.30;99.90
29237;DHT22;16266;50.866;4.398;2023-08-12T05:38:22;20.30;99.90
29237;DHT22;16266;50.866;4.398;2023-08-12T05:40:48;20.30;99.90
29237;DHT22;16266;50.866;4.398;2023-08-12T05:43:14;20.30;99.90
29237;DHT22;16266;50.866;4.398;2023-08-12T05:45:39;20.30;99.90
29237;DHT22;16266;50.866;4.398;2023-08-12T05:48:05;20.40;99.90
29237;DHT22;16266;50.866;4.398;2023-08-12T05:50:31;20.30;99.90
29237;DHT22;16266;50.866;4.398;2023-08-12T05:52:56;20.40;99.90
29237;DHT22;16266;50.866;4.398;2023-08-12T05:55:22;20.30;99.90
29237;DHT22;16266;50.866;4.398;2023-08-12T05:57:47;20.40;99.90
29237;DHT22;16266;50.866;4.398;2023-08-12T06:00:13;20.40;99.90
29237;DHT22;16266;50.866;4.398;2023-08-12T06:02:39;20.40;99.90
29237;DHT22;16266;50.866;4.398;2023-08-12T06:05:05;20.40;99.90
29237;DHT22;16266;50.866;4.398;2023-08-12T06:07:31;20.50;99.90
29237;DHT22;16266;50.866;4.398;2023-08-12T06:09:56;20.60;99.90
29237;DHT22;16266;50.866;4.398;2023-08-12T06:12:22;20.60;99.90
29237;DHT22;16266;50.866;4.398;2023-08-12T06:14:47;20.60;99.90
29237;DHT22;16266;50.866;4.398;2023-08-12T06:17:13;20.60;99.90
29237;DHT22;16266;50.866;4.398;2023-08-12T06:19:39;20.60;99.90
29237;DHT22;16266;50.866;4.398;2023-08-12T06:22:05;20.60;99.90
29237;DHT22;16266;50.866;4.398;2023-08-12T06:24:31;20.60;99.90
29237;DHT22;16266;50.866;4.398;2023-08-12T06:26:56;20.60;99.90
29237;DHT22;16266;50.866;4.398;2023-08-12T06:29:22;20.60;99.90
29237;DHT22;16266;50.866;4.398;2023-08-12T06:31:48;20.60;99.90
29237;DHT22;16266;50.866;4.398;2023-08-12T06:34:13;20.60;99.90
29237;DHT22;16266;50.866;4.398;2023-08-12T06:36:39;20.60;99.90
29237;DHT22;16266;50.866;4.398;2023-08-12T06:39:05;20.70;99.90
29237;DHT22;16266;50.866;4.398;2023-08-12T06:41:30;20.80;99.90
29237;DHT22;16266;50.866;4.398;2023-08-12T06:43:56;20.80;99.90
29237;DHT22;16266;50.866;4.398;2023-08-12T06:46:22;20.90;99.90
29237;DHT22;16266;50.866;4.398;2023-08-12T06:48:48;20.90;99.90
29237;DHT22;16266;50.866;4.398;2023-08-12T06:51:13;21.00;99.90
29237;DHT22;16266;50.866;4.398;2023-08-12T06:53:39;21.00;99.90
29237;DHT22;16266;50.866;4.398;2023-08-12T06:56:05;21.10;99.90
29237;DHT22;16266;50.866;4.398;2023-08-12T06:58:31;21.00;99.90
29237;DHT22;16266;50.866;4.398;2023-08-12T07:00:56;21.00;99.90
29237;DHT22;16266;50.866;4.398;2023-08-12T07:03:24;21.00;99.90
29237;DHT22;16266;50.866;4.398;2023-08-12T07:05:50;21.00;99.90
29237;DHT22;16266;50.866;4.398;2023-08-12T07:08:16;21.00;99.90
29237;DHT22;16266;50.866;4.398;2023-08-12T07:10:41;21.00;99.90
29237;DHT22;16266;50.866;4.398;2023-08-12T07:13:07;21.00;99.90
29237;DHT22;16266;50.866;4.398;2023-08-12T07:15:33;21.10;99.90
29237;DHT22;16266;50.866;4.398;2023-08-12T07:17:58;21.00;99.90
29237;DHT22;16266;50.866;4.398;2023-08-12T07:20:25;20.90;99.90
29237;DHT22;16266;50.866;4.398;2023-08-12T07:22:50;20.70;99.90
29237;DHT22;16266;50.866;4.398;2023-08-12T07:25:16;20.60;99.90
29237;DHT22;16266;50.866;4.398;2023-08-12T07:27:42;20.50;99.90
29237;DHT22;16266;50.866;4.398;2023-08-12T07:30:08;20.40;99.90
29237;DHT22;16266;50.866;4.398;2023-08-12T07:32:36;20.30;99.90
29237;DHT22;16266;50.866;4.398;2023-08-12T07:35:01;20.20;99.90
29237;DHT22;16266;50.866;4.398;2023-08-12T07:37:28;20.10;99.90
29237;DHT22;16266;50.866;4.398;2023-08-12T07:39:54;20.20;99.90
29237;DHT22;16266;50.866;4.398;2023-08-12T07:42:20;20.30;99.90
29237;DHT22;16266;50.866;4.398;2023-08-12T07:44:46;20.40;99.90
29237;DHT22;16266;50.866;4.398;2023-08-12T07:47:11;20.40;99.90
29237;DHT22;16266;50.866;4.398;2023-08-12T07:49:37;20.40;99.90
29237;DHT22;16266;50.866;4.398;2023-08-12T07:52:03;20.50;99.90
29237;DHT22;16266;50.866;4.398;2023-08-12T07:54:29;20.80;99.90
29237;DHT22;16266;50.866;4.398;2023-08-12T07:56:55;20.90;99.90
29237;DHT22;16266;50.866;4.398;2023-08-12T07:59:20;21.10;99.90
29237;DHT22;16266;50.866;4.398;2023-08-12T08:01:46;21.10;99.90
29237;DHT22;16266;50.866;4.398;2023-08-12T08:04:12;21.20;99.90
29237;DHT22;16266;50.866;4.398;2023-08-12T08:06:37;21.40;99.90
29237;DHT22;16266;50.866;4.398;2023-08-12T08:09:03;21.60;99.90
29237;DHT22;16266;50.866;4.398;2023-08-12T08:11:30;21.60;99.90
29237;DHT22;16266;50.866;4.398;2023-08-12T08:13:58;21.50;99.90
29237;DHT22;16266;50.866;4.398;2023-08-12T08:16:24;21.60;99.90
29237;DHT22;16266;50.866;4.398;2023-08-12T08:18:49;21.60;99.90
29237;DHT22;16266;50.866;4.398;2023-08-12T08:21:15;21.60;99.90
29237;DHT22;16266;50.866;4.398;2023-08-12T08:23:42;21.60;99.90
29237;DHT22;16266;50.866;4.398;2023-08-12T08:26:08;21.50;99.90
29237;DHT22;16266;50.866;4.398;2023-08-12T08:28:34;21.50;99.90
29237;DHT22;16266;50.866;4.398;2023-08-12T08:31:00;21.90;99.90
29237;DHT22;16266;50.866;4.398;2023-08-12T08:33:26;22.10;99.90
29237;DHT22;16266;50.866;4.398;2023-08-12T08:35:52;22.20;99.90
29237;DHT22;16266;50.866;4.398;2023-08-12T08:38:17;22.20;99.90
29237;DHT22;16266;50.866;4.398;2023-08-12T08:40:43;22.30;99.90
29237;DHT22;16266;50.866;4.398;2023-08-12T08:43:09;22.60;99.90
29237;DHT22;16266;50.866;4.398;2023-08-12T08:45:36;22.80;99.90
29237;DHT22;16266;50.866;4.398;2023-08-12T08:48:03;22.50;99.90
29237;DHT22;16266;50.866;4.398;2023-08-12T08:50:30;22.20;99.90
29237;DHT22;16266;50.866;4.398;2023-08-12T08:52:57;22.00;99.90
29237;DHT22;16266;50.866;4.398;2023-08-12T08:55:23;21.90;99.90
29237;DHT22;16266;50.866;4.398;2023-08-12T08:57:49;21.70;99.90
29237;DHT22;16266;50.866;4.398;2023-08-12T09:00:16;21.60;99.90
29237;DHT22;16266;50.866;4.398;2023-08-12T09:02:46;21.60;99.90
29237;DHT22;16266;50.866;4.398;2023-08-12T09:05:15;21.80;99.90
29237;DHT22;16266;50.866;4.398;2023-08-12T09:07:42;22.10;99.90
29237;DHT22;16266;50.866;4.398;2023-08-12T09:10:10;22.70;99.90
29237;DHT22;16266;50.866;4.398;2023-08-12T09:12:36;23.60;99.90
29237;DHT22;16266;50.866;4.398;2023-08-12T09:15:03;24.50;99.90
29237;DHT22;16266;50.866;4.398;2023-08-12T09:17:30;24.60;99.90
29237;DHT22;16266;50.866;4.398;2023-08-12T09:19:57;24.60;99.90
29237;DHT22;16266;50.866;4.398;2023-08-12T09:22:25;24.80;99.90
29237;DHT22;16266;50.866;4.398;2023-08-12T09:24:56;25.00;99.90
29237;DHT22;16266;50.866;4.398;2023-08-12T09:27:22;25.60;99.90
29237;DHT22;16266;50.866;4.398;2023-08-12T09:29:47;26.50;99.90
29237;DHT22;16266;50.866;4.398;2023-08-12T09:32:18;27.10;99.90
29237;DHT22;16266;50.866;4.398;2023-08-12T09:34:54;27.40;99.90
29237;DHT22;16266;50.866;4.398;2023-08-12T09:37:23;26.80;99.90
29237;DHT22;16266;50.866;4.398;2023-08-12T09:39:51;26.10;99.90
29237;DHT22;16266;50.866;4.398;2023-08-12T09:42:17;25.80;99.90
29237;DHT22;16266;50.866;4.398;2023-08-12T09:44:43;25.60;99.90
29237;DHT22;16266;50.866;4.398;2023-08-12T09:47:10;25.80;99.90
29237;DHT22;16266;50.866;4.398;2023-08-12T09:49:39;25.70;99.90
29237;DHT22;16266;50.866;4.398;2023-08-12T09:52:05;25.60;99.90
29237;DHT22;16266;50.866;4.398;2023-08-12T09:54:32;25.90;99.90
29237;DHT22;16266;50.866;4.398;2023-08-12T09:56:59;26.30;99.90
29237;DHT22;16266;50.866;4.398;2023-08-12T09:59:33;26.80;99.90
29237;DHT22;16266;50.866;4.398;2023-08-12T10:02:01;27.50;99.90
29237;DHT22;16266;50.866;4.398;2023-08-12T10:04:45;27.90;99.90
29237;DHT22;16266;50.866;4.398;2023-08-12T10:07:11;27.90;99.90
29237;DHT22;16266;50.866;4.398;2023-08-12T10:09:40;27.50;99.90
29237;DHT22;16266;50.866;4.398;2023-08-12T10:12:08;27.10;99.90
29237;DHT22;16266;50.866;4.398;2023-08-12T10:14:34;27.00;99.90
29237;DHT22;16266;50.866;4.398;2023-08-12T10:17:01;27.10;99.90
29237;DHT22;16266;50.866;4.398;2023-08-12T10:19:28;27.80;99.90
29237;DHT22;16266;50.866;4.398;2023-08-12T10:21:55;28.00;99.90
29237;DHT22;16266;50.866;4.398;2023-08-12T10:24:26;28.10;99.90
29237;DHT22;16266;50.866;4.398;2023-08-12T10:26:53;28.60;99.90
29237;DHT22;16266;50.866;4.398;2023-08-12T10:29:19;29.00;99.90
29237;DHT22;16266;50.866;4.398;2023-08-12T10:31:46;29.40;99.90
29237;DHT22;16266;50.866;4.398;2023-08-12T10:34:23;29.70;99.90
29237;DHT22;16266;50.866;4.398;2023-08-12T10:36:54;31.00;99.90
29237;DHT22;16266;50.866;4.398;2023-08-12T10:39:25;32.40;99.00
29237;DHT22;16266;50.866;4.398;2023-08-12T10:41:51;33.00;96.90
29237;DHT22;16266;50.866;4.398;2023-08-12T10:44:20;33.20;93.80
29237;DHT22;16266;50.866;4.398;2023-08-12T10:46:51;34.00;90.10
29237;DHT22;16266;50.866;4.398;2023-08-12T10:49:19;36.00;80.20
29237;DHT22;16266;50.866;4.398;2023-08-12T10:51:53;35.80;70.40
29237;DHT22;16266;50.866;4.398;2023-08-12T10:54:27;34.90;70.20
29237;DHT22;16266;50.866;4.398;2023-08-12T11:02:28;37.80;62.00
29237;DHT22;16266;50.866;4.398;2023-08-12T11:05:00;38.90;52.90
29237;DHT22;16266;50.866;4.398;2023-08-12T11:10:17;40.20;40.40
29237;DHT22;16266;50.866;4.398;2023-08-12T11:15:18;40.90;33.70
29237;DHT22;16266;50.866;4.398;2023-08-12T11:17:46;41.40;34.10
29237;DHT22;16266;50.866;4.398;2023-08-12T11:20:12;41.10;31.30
29237;DHT22;16266;50.866;4.398;2023-08-12T11:22:42;40.70;33.50
29237;DHT22;16266;50.866;4.398;2023-08-12T11:25:11;40.30;30.40
29237;DHT22;16266;50.866;4.398;2023-08-12T11:27:41;40.20;29.10
29237;DHT22;16266;50.866;4.398;2023-08-12T11:30:09;40.50;29.60
29237;DHT22;16266;50.866;4.398;2023-08-12T11:32:37;40.20;29.70
29237;DHT22;16266;50.866;4.398;2023-08-12T11:35:04;39.70;27.30
29237;DHT22;16266;50.866;4.398;2023-08-12T11:37:31;38.90;29.20
29237;DHT22;16266;50.866;4.398;2023-08-12T11:39:56;37.90;33.00
29237;DHT22;16266;50.866;4.398;2023-08-12T11:42:22;38.80;30.20
29237;DHT22;16266;50.866;4.398;2023-08-12T11:44:49;38.00;32.70
29237;DHT22;16266;50.866;4.398;2023-08-12T11:47:16;37.00;34.80
29237;DHT22;16266;50.866;4.398;2023-08-12T11:49:41;38.30;32.10
29237;DHT22;16266;50.866;4.398;2023-08-12T11:52:09;38.90;28.70
29237;DHT22;16266;50.866;4.398;2023-08-12T11:54:35;38.80;28.10
29237;DHT22;16266;50.866;4.398;2023-08-12T11:57:01;39.60;28.60
29237;DHT22;16266;50.866;4.398;2023-08-12T11:59:28;40.10;26.50
29237;DHT22;16266;50.866;4.398;2023-08-12T12:01:54;39.90;25.70
29237;DHT22;16266;50.866;4.398;2023-08-12T12:04:21;40.00;25.90
29237;DHT22;16266;50.866;4.398;2023-08-12T12:06:47;39.30;25.70
29237;DHT22;16266;50.866;4.398;2023-08-12T12:09:13;39.20;28.20
29237;DHT22;16266;50.866;4.398;2023-08-12T12:11:40;39.30;26.40
29237;DHT22;16266;50.866;4.398;2023-08-12T12:14:09;39.50;22.90
29237;DHT22;16266;50.866;4.398;2023-08-12T12:16:44;39.00;23.10
29237;DHT22;16266;50.866;4.398;2023-08-12T12:19:19;39.20;24.00
29237;DHT22;16266;50.866;4.398;2023-08-12T12:21:47;39.00;24.50
29237;DHT22;16266;50.866;4.398;2023-08-12T12:24:13;38.80;22.70
29237;DHT22;16266;50.866;4.398;2023-08-12T12:26:39;39.00;23.10
29237;DHT22;16266;50.866;4.398;2023-08-12T12:29:05;39.20;25.60
29237;DHT22;16266;50.866;4.398;2023-08-12T12:31:33;39.40;24.10
29237;DHT22;16266;50.866;4.398;2023-08-12T12:36:42;39.20;24.70
29237;DHT22;16266;50.866;4.398;2023-08-12T12:39:08;38.20;24.00
29237;DHT22;16266;50.866;4.398;2023-08-12T12:41:33;37.70;24.50
29237;DHT22;16266;50.866;4.398;2023-08-12T12:44:00;37.70;26.10
29237;DHT22;16266;50.866;4.398;2023-08-12T12:46:29;38.80;24.90
29237;DHT22;16266;50.866;4.398;2023-08-12T12:48:55;38.50;22.10
29237;DHT22;16266;50.866;4.398;2023-08-12T12:51:21;39.00;21.60
29237;DHT22;16266;50.866;4.398;2023-08-12T12:53:46;39.10;22.80
29237;DHT22;16266;50.866;4.398;2023-08-12T12:56:12;37.70;23.00
29237;DHT22;16266;50.866;4.398;2023-08-12T12:58:39;35.80;26.00
29237;DHT22;16266;50.866;4.398;2023-08-12T13:01:05;35.00;29.80
29237;DHT22;16266;50.866;4.398;2023-08-12T13:03:31;35.00;28.70
29237;DHT22;16266;50.866;4.398;2023-08-12T13:05:57;34.80;29.70
29237;DHT22;16266;50.866;4.398;2023-08-12T13:08:23;33.10;32.60
29237;DHT22;16266;50.866;4.398;2023-08-12T13:10:49;33.40;35.60
29237;DHT22;16266;50.866;4.398;2023-08-12T13:13:15;34.10;30.50
29237;DHT22;16266;50.866;4.398;2023-08-12T13:15:43;33.90;30.40
29237;DHT22;16266;50.866;4.398;2023-08-12T13:18:09;34.00;30.80
29237;DHT22;16266;50.866;4.398;2023-08-12T13:20:35;33.50;34.80
29237;DHT22;16266;50.866;4.398;2023-08-12T13:23:01;32.40;35.50
29237;DHT22;16266;50.866;4.398;2023-08-12T13:25:31;31.70;40.30
29237;DHT22;16266;50.866;4.398;2023-08-12T13:27:59;31.30;41.50
29237;DHT22;16266;50.866;4.398;2023-08-12T13:30:24;30.80;43.60
29237;DHT22;16266;50.866;4.398;2023-08-12T13:32:50;30.70;49.30
29237;DHT22;16266;50.866;4.398;2023-08-12T13:35:17;30.40;48.80
29237;DHT22;16266;50.866;4.398;2023-08-12T13:37:42;30.90;48.10
29237;DHT22;16266;50.866;4.398;2023-08-12T13:40:09;30.60;49.80
29237;DHT22;16266;50.866;4.398;2023-08-12T13:42:37;30.00;49.00
29237;DHT22;16266;50.866;4.398;2023-08-12T13:45:03;30.20;49.60
29237;DHT22;16266;50.866;4.398;2023-08-12T13:47:29;31.00;48.40
29237;DHT22;16266;50.866;4.398;2023-08-12T13:49:55;32.10;46.70
29237;DHT22;16266;50.866;4.398;2023-08-12T13:52:21;31.50;44.80
29237;DHT22;16266;50.866;4.398;2023-08-12T13:54:47;30.80;47.60
29237;DHT22;16266;50.866;4.398;2023-08-12T13:57:12;30.00;51.70
29237;DHT22;16266;50.866;4.398;2023-08-12T13:59:38;29.80;52.70
29237;DHT22;16266;50.866;4.398;2023-08-12T14:02:06;29.70;52.00
29237;DHT22;16266;50.866;4.398;2023-08-12T14:04:31;29.50;53.40
29237;DHT22;16266;50.866;4.398;2023-08-12T14:06:57;30.00;53.30
29237;DHT22;16266;50.866;4.398;2023-08-12T14:09:23;30.20;50.70
29237;DHT22;16266;50.866;4.398;2023-08-12T14:11:48;30.50;51.00
29237;DHT22;16266;50.866;4.398;2023-08-12T14:14:14;31.00;50.60
29237;DHT22;16266;50.866;4.398;2023-08-12T14:16:40;31.10;47.60
29237;DHT22;16266;50.866;4.398;2023-08-12T14:19:05;30.60;47.90
29237;DHT22;16266;50.866;4.398;2023-08-12T14:21:31;29.90;50.60
29237;DHT22;16266;50.866;4.398;2023-08-12T14:23:57;29.60;53.90
29237;DHT22;16266;50.866;4.398;2023-08-12T14:26:22;29.30;55.70
29237;DHT22;16266;50.866;4.398;2023-08-12T14:31:52;28.30;64.10
29237;DHT22;16266;50.866;4.398;2023-08-12T14:34:18;28.20;65.50
29237;DHT22;16266;50.866;4.398;2023-08-12T14:36:45;28.00;67.10
29237;DHT22;16266;50.866;4.398;2023-08-12T14:39:10;28.10;68.20
29237;DHT22;16266;50.866;4.398;2023-08-12T14:41:36;28.30;67.50
29237;DHT22;16266;50.866;4.398;2023-08-12T14:44:01;28.60;63.30
29237;DHT22;16266;50.866;4.398;2023-08-12T14:46:27;28.90;64.50
29237;DHT22;16266;50.866;4.398;2023-08-12T14:48:53;28.90;66.30
29237;DHT22;16266;50.866;4.398;2023-08-12T14:51:19;28.70;64.10
29237;DHT22;16266;50.866;4.398;2023-08-12T14:53:45;28.50;64.90
29237;DHT22;16266;50.866;4.398;2023-08-12T14:56:12;28.30;66.90
29237;DHT22;16266;50.866;4.398;2023-08-12T14:58:38;27.90;67.50
29237;DHT22;16266;50.866;4.398;2023-08-12T15:01:04;27.70;71.30
29237;DHT22;16266;50.866;4.398;2023-08-12T15:03:30;27.70;74.20
29237;DHT22;16266;50.866;4.398;2023-08-12T15:06:02;27.60;70.60
29237;DHT22;16266;50.866;4.398;2023-08-12T15:08:29;27.50;70.70
29237;DHT22;16266;50.866;4.398;2023-08-12T15:10:55;27.40;69.90
29237;DHT22;16266;50.866;4.398;2023-08-12T15:13:21;27.50;71.70
29237;DHT22;16266;50.866;4.398;2023-08-12T15:15:48;27.60;69.00
29237;DHT22;16266;50.866;4.398;2023-08-12T15:18:14;27.80;71.00
29237;DHT22;16266;50.866;4.398;2023-08-12T15:20:40;27.80;65.90
29237;DHT22;16266;50.866;4.398;2023-08-12T15:23:05;27.80;67.20
29237;DHT22;16266;50.866;4.398;2023-08-12T15:25:31;27.70;68.30
29237;DHT22;16266;50.866;4.398;2023-08-12T15:27:57;27.50;65.90
29237;DHT22;16266;50.866;4.398;2023-08-12T15:30:24;27.30;71.10
29237;DHT22;16266;50.866;4.398;2023-08-12T15:32:49;27.30;68.80
29237;DHT22;16266;50.866;4.398;2023-08-12T15:35:16;27.30;65.40
29237;DHT22;16266;50.866;4.398;2023-08-12T15:37:41;27.30;66.20
29237;DHT22;16266;50.866;4.398;2023-08-12T15:40:07;27.40;63.80
29237;DHT22;16266;50.866;4.398;2023-08-12T15:42:34;27.50;67.00